Time;durP1;ratioP1;P1;durP2;ratioP2;P2;SDS_P1;SDS_P2;PMS_P1;PMS_P2;Temp;Humidity;BMP_temperature;BMP_pressure;BME280_temperature;BME280_humidity;BME280_pressure;Samples;Min_cycle;Max_cycle;Signal;HPM_P1;HPM_P2
2020/12/28 00:00:09;;;;;;;5.07;3.17;;;;;;;0.87;83.65;97715.81;5050785;28;20037;-70
2020/12/28 00:02:39;;;;;;;3.85;3.05;;;;;;;0.85;83.41;97723.88;5051252;28;20037;-70
2020/12/28 00:05:07;;;;;;;5.60;2.58;;;;;;;0.87;83.16;97719.28;5051650;28;20036;-69
2020/12/28 00:07:33;;;;;;;3.83;2.55;;;;;;;0.89;83.41;97716.47;5051414;28;20480;-69
2020/12/28 00:09:58;;;;;;;7.00;2.50;;;;;;;0.90;83.18;97729.44;5051554;28;20045;-69
2020/12/28 00:12:27;;;;;;;3.70;2.83;;;;;;;0.92;82.90;97724.00;5050566;28;20049;-70
2020/12/28 00:14:53;;;;;;;4.80;2.35;;;;;;;0.92;83.05;97727.44;5050460;28;20049;-69
2020/12/28 00:17:18;;;;;;;12.77;3.73;;;;;;;0.95;83.03;97724.47;5050100;28;20025;-69
2020/12/28 00:19:43;;;;;;;3.30;2.50;;;;;;;0.96;83.08;97722.66;5051398;28;20413;-69
2020/12/28 00:22:08;;;;;;;5.63;2.63;;;;;;;0.93;82.99;97710.69;5050621;28;20470;-70
2020/12/28 00:24:34;;;;;;;4.23;2.73;;;;;;;0.92;83.74;97716.13;5051393;28;20033;-69
2020/12/28 00:26:59;;;;;;;6.80;2.50;;;;;;;0.90;83.46;97710.22;5033307;28;20086;-69
2020/12/28 00:29:25;;;;;;;3.30;2.03;;;;;;;0.89;83.80;97706.78;5051342;28;20037;-69
2020/12/28 00:31:50;;;;;;;4.67;2.93;;;;;;;0.88;83.80;97725.34;5050368;28;20052;-69
2020/12/28 00:34:15;;;;;;;3.13;2.20;;;;;;;0.86;84.12;97722.06;5050285;28;20037;-69
2020/12/28 00:36:40;;;;;;;4.53;3.00;;;;;;;0.86;83.74;97716.81;5050903;28;20037;-69
2020/12/28 00:39:06;;;;;;;5.40;2.53;;;;;;;0.84;84.29;97722.22;5050309;28;20048;-70
2020/12/28 00:41:32;;;;;;;3.90;2.00;;;;;;;0.76;84.65;97731.00;5049969;28;20029;-70
2020/12/28 00:43:58;;;;;;;3.63;2.45;;;;;;;0.72;85.09;97732.31;5051202;28;20524;-70
2020/12/28 00:46:23;;;;;;;5.82;2.30;;;;;;;0.69;85.48;97735.31;5033272;28;20068;-69
2020/12/28 00:48:48;;;;;;;4.50;3.45;;;;;;;0.68;85.52;97732.84;5050373;28;20176;-70
2020/12/28 00:51:14;;;;;;;3.70;2.27;;;;;;;0.65;85.72;97722.69;5033578;28;20045;-70
2020/12/28 00:53:41;;;;;;;4.13;2.40;;;;;;;0.63;86.19;97714.97;5050072;28;20041;-70
2020/12/28 00:56:08;;;;;;;4.43;2.55;;;;;;;0.63;85.99;97722.84;5033205;28;20395;-69
2020/12/28 00:58:36;;;;;;;4.78;2.67;;;;;;;0.64;86.16;97719.25;5049998;28;20102;-70
2020/12/28 01:01:04;;;;;;;4.50;2.63;;;;;;;0.61;86.57;97732.75;5049992;28;20075;-70
2020/12/28 01:03:30;;;;;;;3.33;2.10;;;;;;;0.66;85.92;97726.97;5049853;28;20029;-70
2020/12/28 01:06:24;;;;;;;3.13;2.58;;;;;;;0.64;86.34;97716.63;5049711;28;20076;-70
2020/12/28 01:09:09;;;;;;;3.95;2.08;;;;;;;0.66;86.50;97713.84;5049915;28;20033;-70
2020/12/28 01:11:34;;;;;;;3.20;2.13;;;;;;;0.62;86.27;97708.09;5050750;28;20087;-70
2020/12/28 01:14:00;;;;;;;4.47;2.30;;;;;;;0.65;86.85;97718.25;5033855;28;20029;-70
2020/12/28 01:16:26;;;;;;;4.20;2.00;;;;;;;0.69;86.22;97726.63;5053550;28;20036;-70
2020/12/28 01:18:52;;;;;;;4.32;2.78;;;;;;;0.64;86.46;97721.88;5053840;28;20036;-69
2020/12/28 01:21:24;;;;;;;3.15;2.03;;;;;;;0.68;86.25;97714.47;5053865;28;20056;-70
2020/12/28 01:23:50;;;;;;;4.88;2.30;;;;;;;0.70;86.21;97720.34;5053906;28;20070;-70
2020/12/28 01:26:17;;;;;;;5.53;2.70;;;;;;;0.68;86.51;97709.22;5053456;28;20028;-70
2020/12/28 01:28:46;;;;;;;3.63;2.22;;;;;;;0.68;86.38;97706.59;5037601;28;20037;-69
2020/12/28 01:31:11;;;;;;;5.75;3.03;;;;;;;0.66;86.59;97709.41;5053706;28;20041;-70
2020/12/28 01:33:55;;;;;;;4.32;2.67;;;;;;;0.70;86.18;97713.28;5054594;28;20055;-70
2020/12/28 01:36:24;;;;;;;3.45;2.55;;;;;;;0.70;85.99;97715.91;5037093;28;20036;-69
2020/12/28 01:38:50;;;;;;;3.67;2.47;;;;;;;0.72;86.27;97728.88;5054462;28;20045;-70
2020/12/28 01:41:15;;;;;;;3.33;2.30;;;;;;;0.76;86.15;97740.69;5053423;28;20371;-70
2020/12/28 01:43:44;;;;;;;3.88;2.42;;;;;;;0.78;85.95;97723.75;5053383;28;20029;-70
2020/12/28 01:46:12;;;;;;;3.60;2.33;;;;;;;0.78;85.61;97728.19;5052939;28;20527;-70
2020/12/28 01:48:40;;;;;;;5.28;3.03;;;;;;;0.84;85.15;97733.59;5037260;28;20127;-70
2020/12/28 01:51:08;;;;;;;5.20;3.30;;;;;;;0.88;84.96;97728.78;5054266;28;20028;-70
2020/12/28 01:53:35;;;;;;;3.63;1.90;;;;;;;0.92;84.35;97734.50;5036880;28;20037;-69
2020/12/28 01:56:04;;;;;;;3.15;1.60;;;;;;;0.96;84.17;97730.53;5052862;28;20033;-70
2020/12/28 01:58:34;;;;;;;4.47;2.38;;;;;;;0.97;83.95;97721.66;5053065;28;20043;-70
2020/12/28 02:01:00;;;;;;;4.20;1.83;;;;;;;0.99;83.57;97724.94;5053135;28;20040;-70
2020/12/28 02:03:27;;;;;;;3.85;2.30;;;;;;;1.07;83.06;97731.94;5036414;28;20029;-69
2020/12/28 02:06:08;;;;;;;5.47;2.30;;;;;;;1.08;82.94;97728.31;5052859;28;20032;-70
2020/12/28 02:08:34;;;;;;;5.63;2.15;;;;;;;1.10;82.94;97721.91;5036401;28;20116;-70
2020/12/28 02:11:00;;;;;;;3.78;2.20;;;;;;;1.14;82.96;97723.16;5052752;28;20033;-69
2020/12/28 02:13:26;;;;;;;3.60;1.70;;;;;;;1.20;82.68;97722.47;5052796;28;21043;-70
2020/12/28 02:16:10;;;;;;;3.08;1.83;;;;;;;1.25;82.42;97714.06;5053533;28;20063;-69
2020/12/28 02:18:43;;;;;;;2.97;1.70;;;;;;;1.24;82.63;97713.25;5037146;28;20352;-70
2020/12/28 02:21:18;;;;;;;3.15;2.05;;;;;;;1.24;82.11;97710.63;5052744;28;20037;-69
2020/12/28 02:23:44;;;;;;;4.33;2.20;;;;;;;1.28;82.42;97708.44;5036015;28;20044;-70
2020/12/28 02:26:10;;;;;;;3.33;1.75;;;;;;;1.29;82.25;97701.38;5051869;28;20104;-70
2020/12/28 02:28:36;;;;;;;2.30;2.10;;;;;;;1.27;82.63;97702.38;5053601;28;20045;-70
2020/12/28 02:31:01;;;;;;;5.95;1.90;;;;;;;1.27;82.94;97717.34;5036121;28;20021;-70
2020/12/28 02:33:49;;;;;;;5.05;2.10;;;;;;;1.27;83.47;97722.59;5051416;28;20351;-69
2020/12/28 02:36:24;;;;;;;2.58;1.83;;;;;;;1.27;83.49;97733.91;5052158;28;20098;-70
2020/12/28 02:38:50;;;;;;;2.88;1.92;;;;;;;1.31;83.39;97723.88;5052576;28;20032;-70
2020/12/28 02:41:16;;;;;;;2.55;1.67;;;;;;;1.31;84.09;97723.03;5052434;28;20021;-70
2020/12/28 02:44:00;;;;;;;2.53;1.65;;;;;;;1.36;83.78;97726.78;5053319;28;20051;-70
2020/12/28 02:46:44;;;;;;;3.13;2.22;;;;;;;1.36;83.00;97711.00;5053200;28;20142;-70
2020/12/28 02:49:27;;;;;;;2.20;1.67;;;;;;;1.37;82.97;97717.88;5052698;28;20052;-69
2020/12/28 02:52:28;;;;;;;3.75;2.47;;;;;;;1.42;82.89;97696.31;5051140;28;20123;-69
2020/12/28 02:55:12;;;;;;;2.22;1.50;;;;;;;1.40;83.17;97706.19;5052973;28;20072;-70
2020/12/28 02:57:56;;;;;;;2.88;1.63;;;;;;;1.44;82.71;97699.59;5052944;28;20056;-70
2020/12/28 03:00:40;;;;;;;3.83;1.65;;;;;;;1.52;82.15;97704.75;5053335;28;20047;-70
2020/12/28 03:03:23;;;;;;;4.95;1.90;;;;;;;1.56;82.19;97706.03;5052958;28;20060;-70
2020/12/28 03:06:07;;;;;;;2.30;1.60;;;;;;;1.57;82.42;97715.59;5053022;28;20043;-70
2020/12/28 03:08:51;;;;;;;2.42;1.67;;;;;;;1.59;81.87;97703.06;5053128;28;20098;-70
2020/12/28 03:11:36;;;;;;;9.43;2.20;;;;;;;1.60;81.96;97712.59;5052944;28;20039;-70
2020/12/28 03:14:20;;;;;;;3.17;1.60;;;;;;;1.63;81.68;97706.97;5051991;28;20390;-70
2020/12/28 03:17:04;;;;;;;2.67;1.83;;;;;;;1.62;81.96;97707.97;5052447;28;20071;-70
2020/12/28 03:19:48;;;;;;;1.75;1.40;;;;;;;1.62;81.81;97700.09;5052482;28;20051;-70
2020/12/28 03:22:32;;;;;;;2.47;1.40;;;;;;;1.61;81.43;97703.69;5051849;28;20063;-70
2020/12/28 03:25:16;;;;;;;2.45;1.80;;;;;;;1.58;81.73;97706.69;5052505;28;20051;-70
2020/12/28 03:28:00;;;;;;;3.17;1.80;;;;;;;1.63;81.29;97712.22;5052230;28;20059;-69
2020/12/28 03:30:44;;;;;;;2.47;1.45;;;;;;;1.61;81.62;97713.41;5051985;28;20052;-69
2020/12/28 03:33:30;;;;;;;2.72;1.48;;;;;;;1.62;81.52;97722.94;5051360;28;20377;-70
2020/12/28 03:36:13;;;;;;;3.90;1.65;;;;;;;1.61;81.46;97716.03;5051768;28;20111;-70
2020/12/28 03:38:58;;;;;;;3.85;1.80;;;;;;;1.60;81.90;97715.22;5052091;28;20043;-70
2020/12/28 03:41:41;;;;;;;2.45;1.65;;;;;;;1.64;81.71;97716.50;5052299;28;20505;-70
2020/12/28 03:44:25;;;;;;;4.22;1.95;;;;;;;1.63;81.81;97699.06;5052245;28;20113;-70
2020/12/28 03:47:09;;;;;;;3.42;1.90;;;;;;;1.63;81.75;97696.44;5051842;28;20126;-70
2020/12/28 03:49:53;;;;;;;2.08;1.60;;;;;;;1.67;81.93;97699.53;5052237;28;20439;-70
2020/12/28 03:52:39;;;;;;;2.80;1.65;;;;;;;1.67;81.78;97705.63;5052094;28;20051;-70
2020/12/28 03:55:23;;;;;;;3.03;1.85;;;;;;;1.70;81.58;97707.06;5051126;28;20044;-70
2020/12/28 03:58:07;;;;;;;2.00;1.38;;;;;;;1.74;81.65;97712.78;5051850;28;20056;-70
2020/12/28 04:00:51;;;;;;;3.00;1.55;;;;;;;1.71;81.99;97707.88;5052147;28;20047;-70
2020/12/28 04:03:54;;;;;;;2.13;1.48;;;;;;;1.73;81.52;97705.88;5051592;28;20463;-70
2020/12/28 04:06:40;;;;;;;2.05;1.45;;;;;;;1.72;81.95;97705.06;5050279;28;20044;-70
2020/12/28 04:09:23;;;;;;;1.70;1.30;;;;;;;1.73;81.84;97708.50;5052022;28;20075;-70
2020/12/28 04:12:07;;;;;;;1.77;1.20;;;;;;;1.77;82.07;97707.97;5051706;28;20083;-70
2020/12/28 04:14:35;;;;;;;3.83;1.73;;;;;;;1.81;82.13;97700.56;5050644;28;20033;-70
2020/12/28 04:17:00;;;;;;;2.00;1.30;;;;;;;1.80;81.85;97693.63;5051336;28;20037;-70
2020/12/28 04:19:25;;;;;;;1.93;1.43;;;;;;;1.83;81.97;97706.44;5051573;28;20045;-70
2020/12/28 04:21:51;;;;;;;3.43;1.50;;;;;;;1.84;82.13;97705.44;5051528;28;20029;-71
2020/12/28 04:24:16;;;;;;;2.53;1.20;;;;;;;1.82;82.23;97702.97;5051454;28;20071;-71
2020/12/28 04:26:43;;;;;;;1.73;1.37;;;;;;;1.88;82.27;97714.63;5050168;28;20383;-70
2020/12/28 04:29:10;;;;;;;3.60;1.67;;;;;;;1.86;82.59;97720.03;5051280;28;20450;-71
2020/12/28 04:31:36;;;;;;;1.40;1.02;;;;;;;1.84;83.08;97723.84;5051385;28;20068;-71
2020/12/28 04:34:01;;;;;;;1.97;1.50;;;;;;;1.84;83.29;97718.59;5051273;28;20075;-71
2020/12/28 04:36:26;;;;;;;2.53;1.80;;;;;;;1.85;83.29;97721.06;5050157;28;20056;-70
2020/12/28 04:38:52;;;;;;;3.90;1.90;;;;;;;1.89;83.34;97721.50;5050487;28;20044;-70
2020/12/28 04:41:17;;;;;;;1.53;1.20;;;;;;;1.91;83.88;97722.13;5051197;28;20051;-71
2020/12/28 04:43:43;;;;;;;2.17;1.38;;;;;;;1.94;83.49;97721.75;5050342;28;20040;-71
2020/12/28 04:46:09;;;;;;;1.17;1.07;;;;;;;1.96;83.96;97718.97;5050972;28;20056;-71
2020/12/28 04:48:34;;;;;;;2.15;1.48;;;;;;;1.99;84.11;97721.22;5050178;28;20041;-71
2020/12/28 04:51:00;;;;;;;2.93;1.10;;;;;;;2.02;84.13;97707.72;5051085;28;20071;-71
2020/12/28 04:53:28;;;;;;;2.30;1.30;;;;;;;2.02;84.21;97705.09;5050025;28;20366;-71
2020/12/28 04:55:53;;;;;;;1.42;1.10;;;;;;;2.01;84.28;97706.88;5049658;28;20546;-70
2020/12/28 04:58:19;;;;;;;1.58;1.10;;;;;;;2.05;84.29;97688.91;5050091;28;20033;-70
2020/12/28 05:00:45;;;;;;;1.57;1.30;;;;;;;2.07;84.28;97703.53;5051078;28;20473;-70
2020/12/28 05:03:10;;;;;;;;;;;;;;;2.08;84.26;97702.53;5051258;28;20044;-71
2020/12/28 05:05:45;;;;;;;;;;;;;;;2.07;84.65;97705.34;5051329;28;19912;-70
2020/12/28 05:08:10;;;;;;;4.10;1.02;;;;;;;2.05;84.71;97692.38;5033185;28;19921;-70
2020/12/28 05:10:36;;;;;;;2.30;1.30;;;;;;;2.08;84.48;97697.28;5050208;28;20052;-66
2020/12/28 05:13:12;;;;;;;1.17;1.07;;;;;;;2.09;84.46;97712.06;5051331;28;20037;-65
2020/12/28 05:15:51;;;;;;;2.33;1.10;;;;;;;2.07;84.61;97706.16;5050713;28;20044;-65
2020/12/28 05:18:18;;;;;;;3.88;2.03;;;;;;;2.04;84.80;97719.69;5050892;28;20037;-65
2020/12/28 05:20:46;;;;;;;2.42;1.48;;;;;;;2.04;84.83;97724.97;5050634;28;20029;-65
2020/12/28 05:23:13;;;;;;;2.80;1.42;;;;;;;2.05;84.79;97716.03;5050722;28;20072;-65
2020/12/28 05:25:42;;;;;;;1.45;1.05;;;;;;;2.06;84.73;97728.22;5049696;28;20041;-65
2020/12/28 05:28:09;;;;;;;2.47;1.35;;;;;;;2.06;84.30;97722.97;5049820;28;20037;-65
2020/12/28 05:30:34;;;;;;;1.65;1.00;;;;;;;2.10;84.21;97737.38;5033267;28;20374;-65
2020/12/28 05:33:06;;;;;;;1.23;1.13;;;;;;;2.10;83.91;97740.00;5050750;28;20041;-65
2020/12/28 05:35:32;;;;;;;1.58;1.15;;;;;;;2.07;84.03;97745.63;5049499;28;20053;-65
2020/12/28 05:38:00;;;;;;;1.67;1.10;;;;;;;2.05;83.89;97750.25;5049627;28;20044;-65
2020/12/28 05:40:25;;;;;;;1.45;1.10;;;;;;;2.09;83.78;97748.91;5049739;28;20041;-65
2020/12/28 05:42:51;;;;;;;2.17;0.97;;;;;;;2.09;82.90;97756.00;5050778;28;20037;-65
2020/12/28 05:45:17;;;;;;;1.35;1.00;;;;;;;2.04;83.13;97758.34;5049711;28;20354;-65
2020/12/28 05:47:48;;;;;;;1.77;1.13;;;;;;;2.06;81.69;97762.44;5050353;28;20051;-65
2020/12/28 05:50:19;;;;;;;1.33;0.90;;;;;;;2.06;80.70;97759.81;5033001;28;20056;-65
2020/12/28 05:52:48;;;;;;;2.10;1.00;;;;;;;2.07;80.62;97765.88;5049742;28;20037;-65
2020/12/28 05:55:17;;;;;;;2.42;1.10;;;;;;;2.05;80.02;97763.41;5049441;28;20036;-65
2020/12/28 05:57:45;;;;;;;1.73;1.02;;;;;;;2.08;78.83;97759.59;5049425;28;20135;-65
2020/12/28 06:00:10;;;;;;;2.28;1.10;;;;;;;2.05;78.75;97758.16;5051159;28;20041;-66
2020/12/28 06:02:38;;;;;;;;;;;;;;;2.04;78.19;97759.16;5053741;28;20731;-66
2020/12/28 06:05:07;;;;;;;3.70;1.10;;;;;;;2.02;77.73;97755.09;5053066;28;19952;-65
2020/12/28 06:07:33;;;;;;;2.38;1.10;;;;;;;2.00;77.87;97750.00;5053788;28;20041;-66
2020/12/28 06:09:58;;;;;;;2.33;1.50;;;;;;;1.96;77.69;97747.91;5053181;28;20183;-65
2020/12/28 06:12:24;;;;;;;3.10;1.02;;;;;;;1.92;77.06;97744.84;5053135;28;20037;-65
2020/12/28 06:14:50;;;;;;;2.28;1.30;;;;;;;1.95;75.99;97743.66;5053829;28;20036;-65
2020/12/28 06:17:16;;;;;;;2.83;1.20;;;;;;;1.94;75.96;97750.69;5053693;28;20116;-65
2020/12/28 06:19:41;;;;;;;3.80;1.27;;;;;;;1.97;74.36;97752.19;5052979;28;20143;-65
2020/12/28 06:22:21;;;;;;;1.70;1.10;;;;;;;1.96;74.88;97750.53;5053895;28;20128;-65
2020/12/28 06:24:59;;;;;;;1.63;1.20;;;;;;;1.95;74.33;97749.72;5053863;28;20130;-65
2020/12/28 06:27:30;;;;;;;2.22;1.30;;;;;;;1.94;74.98;97757.78;5052360;28;20029;-65
2020/12/28 06:30:16;;;;;;;2.80;1.60;;;;;;;1.90;75.68;97754.72;5053588;28;20028;-65
2020/12/28 06:32:43;;;;;;;2.72;1.35;;;;;;;1.87;75.54;97747.16;5052760;28;20052;-65
2020/12/28 06:35:11;;;;;;;2.55;1.45;;;;;;;1.83;75.86;97751.16;5052573;28;20370;-65
2020/12/28 06:37:48;;;;;;;2.47;1.10;;;;;;;1.80;75.06;97741.81;5053119;28;20530;-65
2020/12/28 06:40:26;;;;;;;2.88;1.48;;;;;;;1.81;74.14;97743.44;5053498;28;20044;-65
2020/12/28 06:42:51;;;;;;;3.40;1.20;;;;;;;1.81;74.87;97753.97;5053433;28;20037;-65
2020/12/28 06:45:17;;;;;;;2.30;1.33;;;;;;;1.79;74.19;97757.78;5053406;28;20067;-65
2020/12/28 06:47:45;;;;;;;2.17;1.10;;;;;;;1.78;73.84;97762.22;5053125;28;20060;-65
2020/12/28 06:50:11;;;;;;;3.78;2.17;;;;;;;1.77;73.02;97762.41;5035566;28;20037;-65
2020/12/28 06:52:36;;;;;;;2.15;1.60;;;;;;;1.78;73.14;97758.75;5052449;28;20041;-65
2020/12/28 06:55:10;;;;;;;3.33;1.87;;;;;;;1.77;71.92;97775.56;5053111;28;20051;-65
2020/12/28 06:57:35;;;;;;;6.00;1.83;;;;;;;1.79;72.69;97774.38;5052018;28;20529;-65
2020/12/28 07:00:01;;;;;;;2.93;1.47;;;;;;;1.75;71.85;97780.16;5035632;28;20116;-65
2020/12/28 07:02:27;;;;;;;3.23;1.40;;;;;;;1.73;71.86;97785.59;5053155;28;20048;-65
2020/12/28 07:04:53;;;;;;;2.70;1.85;;;;;;;1.74;71.07;97781.19;5052770;28;20037;-65
2020/12/28 07:07:19;;;;;;;5.00;2.73;;;;;;;1.72;71.33;97789.25;5052708;28;20036;-65
2020/12/28 07:09:46;;;;;;;3.63;1.92;;;;;;;1.72;71.02;97789.25;5052879;28;20066;-65
2020/12/28 07:12:12;;;;;;;3.63;1.70;;;;;;;1.71;71.97;97803.41;5051628;28;20458;-65
2020/12/28 07:14:37;;;;;;;3.47;1.70;;;;;;;1.68;72.19;97788.75;5051817;28;20095;-65
2020/12/28 07:17:04;;;;;;;3.95;2.20;;;;;;;1.71;71.34;97782.34;5052577;28;20033;-65
2020/12/28 07:19:29;;;;;;;4.53;2.58;;;;;;;1.71;72.16;97779.72;5035280;28;20041;-66
2020/12/28 07:21:55;;;;;;;4.87;2.47;;;;;;;1.65;71.04;97778.59;5052776;28;20447;-65
2020/12/28 07:24:21;;;;;;;4.37;1.77;;;;;;;1.64;71.76;97786.69;5052718;28;20041;-65
2020/12/28 07:26:47;;;;;;;3.40;2.22;;;;;;;1.61;72.22;97787.84;5052276;28;20143;-65
2020/12/28 07:29:16;;;;;;;;;;;;;;;1.58;71.63;97780.31;5053034;28;20039;-65
2020/12/28 07:31:42;;;;;;;4.35;2.20;;;;;;;1.61;72.56;97777.31;5052514;28;20334;-65
2020/12/28 07:34:12;;;;;;;3.78;2.55;;;;;;;1.53;72.53;97779.22;5051360;28;20067;-65
2020/12/28 07:36:41;;;;;;;3.53;2.28;;;;;;;1.53;72.35;97790.56;5051162;28;20405;-65
2020/12/28 07:39:09;;;;;;;4.22;2.20;;;;;;;1.51;71.53;97782.03;5052277;28;20029;-65
2020/12/28 07:41:35;;;;;;;4.53;2.80;;;;;;;1.53;72.06;97784.50;5051240;28;20040;-65
2020/12/28 07:44:00;;;;;;;4.45;2.45;;;;;;;1.54;72.34;97780.84;5052316;28;20049;-65
2020/12/28 07:46:32;;;;;;;5.47;3.00;;;;;;;1.51;71.34;97787.28;5050932;28;20043;-65
2020/12/28 07:49:19;;;;;;;3.28;2.33;;;;;;;1.50;71.90;97785.66;5034577;28;20052;-65
2020/12/28 07:52:02;;;;;;;5.82;2.78;;;;;;;1.51;72.59;97792.53;5051225;28;20119;-65
2020/12/28 07:54:45;;;;;;;4.15;2.85;;;;;;;1.49;71.85;97797.16;5052012;28;20037;-65
2020/12/28 07:57:17;;;;;;;5.22;2.78;;;;;;;1.45;72.65;97804.59;5051711;28;20064;-65
2020/12/28 07:59:48;;;;;;;6.95;3.30;;;;;;;1.43;72.12;97806.56;5052002;28;20048;-65
2020/12/28 08:02:23;;;;;;;5.30;2.42;;;;;;;1.42;72.75;97809.38;5050938;28;20116;-65
2020/12/28 08:04:49;;;;;;;7.10;3.57;;;;;;;1.44;72.26;97807.38;5050835;28;20028;-65
2020/12/28 08:07:20;;;;;;;6.45;2.97;;;;;;;1.43;72.05;97796.06;5050548;28;20337;-65
2020/12/28 08:09:54;;;;;;;4.63;2.60;;;;;;;1.42;72.17;97802.28;5050897;28;20033;-65
2020/12/28 08:12:20;;;;;;;4.65;2.85;;;;;;;1.37;72.23;97794.13;5051798;28;20416;-65
2020/12/28 08:14:55;;;;;;;6.70;3.30;;;;;;;1.35;72.15;97793.47;5050636;28;20033;-65
2020/12/28 08:17:27;;;;;;;5.43;3.13;;;;;;;1.34;72.25;97786.59;5051285;28;20043;-65
2020/12/28 08:20:06;;;;;;;5.68;2.95;;;;;;;1.36;72.46;97779.34;5051488;28;20033;-65
2020/12/28 08:22:32;;;;;;;4.82;2.97;;;;;;;1.32;72.49;97780.69;5049855;28;20106;-65
2020/12/28 08:24:58;;;;;;;6.45;3.03;;;;;;;1.35;72.35;97793.47;5051387;28;20048;-65
2020/12/28 08:27:27;;;;;;;4.90;2.75;;;;;;;1.33;72.54;97789.41;5051213;28;20041;-65
2020/12/28 08:29:52;;;;;;;5.72;3.17;;;;;;;1.28;73.22;97797.81;5051412;28;20041;-65
2020/12/28 08:32:18;;;;;;;5.77;3.90;;;;;;;1.31;74.12;97809.78;5051262;28;20043;-65
2020/12/28 08:34:53;;;;;;;5.40;3.30;;;;;;;1.27;72.80;97812.75;5050413;28;20037;-65
2020/12/28 08:37:19;;;;;;;5.85;3.70;;;;;;;1.25;73.33;97813.94;5051093;28;20048;-65
2020/12/28 08:39:45;;;;;;;4.88;2.90;;;;;;;1.24;73.63;97823.63;5050284;28;20123;-65
2020/12/28 08:42:10;;;;;;;7.93;3.10;;;;;;;1.29;74.21;97831.00;5050341;28;20143;-65
2020/12/28 08:44:38;;;;;;;6.77;4.20;;;;;;;1.26;73.80;97837.44;5033547;28;20051;-65
2020/12/28 08:47:08;;;;;;;7.10;4.80;;;;;;;1.26;73.92;97833.97;5050821;28;20106;-65
2020/12/28 08:49:35;;;;;;;6.43;3.40;;;;;;;1.27;73.99;97860.06;5051003;28;20082;-65
2020/12/28 08:52:17;;;;;;;9.35;4.43;;;;;;;1.20;74.03;97861.75;5051166;28;20037;-65
2020/12/28 08:54:50;;;;;;;8.98;3.97;;;;;;;1.40;74.28;97870.00;5049936;28;20068;-65
2020/12/28 08:57:27;;;;;;;7.82;3.53;;;;;;;1.94;76.38;97882.25;5050711;28;20028;-65
2020/12/28 08:59:55;;;;;;;6.13;3.38;;;;;;;1.83;75.04;97864.28;5033567;28;20131;-65
2020/12/28 09:02:22;;;;;;;7.18;3.63;;;;;;;1.95;71.41;97873.41;5050097;28;20044;-65
2020/12/28 09:04:48;;;;;;;9.13;3.95;;;;;;;1.37;73.79;97865.09;5050465;28;20029;-65
2020/12/28 09:07:14;;;;;;;7.68;4.50;;;;;;;1.22;73.39;97861.59;5050702;28;20450;-65
2020/12/28 09:09:41;;;;;;;7.05;3.85;;;;;;;1.22;74.39;97859.78;5048158;28;20468;-65
2020/12/28 09:12:08;;;;;;;7.05;4.22;;;;;;;1.22;74.14;97846.66;5049406;28;20047;-65
2020/12/28 09:14:33;;;;;;;8.82;3.90;;;;;;;1.25;74.96;97851.53;5049064;28;20040;-65
2020/12/28 09:16:58;;;;;;;7.17;4.57;;;;;;;1.23;73.99;97853.53;5049002;28;20033;-65
2020/12/28 09:19:24;;;;;;;7.27;4.00;;;;;;;1.13;73.73;97854.75;5049169;28;20109;-65
2020/12/28 09:21:49;;;;;;;9.30;4.70;;;;;;;1.12;74.18;97853.09;5048179;28;20375;-65
2020/12/28 09:24:14;;;;;;;6.33;3.97;;;;;;;1.16;74.13;97852.59;5049260;28;20043;-65
2020/12/28 09:26:40;;;;;;;10.10;4.67;;;;;;;1.24;74.90;97849.91;5050511;28;20561;-65
2020/12/28 09:29:05;;;;;;;8.60;4.93;;;;;;;1.20;75.32;97858.31;5050339;28;20397;-65
2020/12/28 09:31:30;;;;;;;8.47;4.60;;;;;;;1.12;75.47;97864.41;5050739;28;20367;-65
2020/12/28 09:33:56;;;;;;;11.47;5.40;;;;;;;1.01;75.64;97862.22;5049624;28;20732;-65
2020/12/28 09:36:21;;;;;;;7.73;4.37;;;;;;;1.01;76.57;97855.13;5052013;28;20299;-65
2020/12/28 09:38:50;;;;;;;8.02;4.88;;;;;;;1.05;76.57;97861.69;5054507;28;20029;-65
2020/12/28 09:41:16;;;;;;;8.50;4.55;;;;;;;1.01;76.85;97859.56;5053660;28;20061;-70
2020/12/28 09:43:42;;;;;;;9.13;4.90;;;;;;;0.94;76.80;97851.56;5054539;28;20838;-70
2020/12/28 09:46:09;;;;;;;8.70;5.32;;;;;;;0.92;77.41;97852.72;5054066;28;20033;-71
2020/12/28 09:48:34;;;;;;;8.10;4.70;;;;;;;0.84;78.56;97851.78;5053416;28;20044;-71
2020/12/28 09:51:02;;;;;;;8.00;4.80;;;;;;;0.79;79.10;97861.13;5054330;28;20041;-70
2020/12/28 09:53:27;;;;;;;10.38;5.40;;;;;;;0.76;79.98;97861.50;5054187;28;20045;-71
2020/12/28 09:55:52;;;;;;;11.27;5.47;;;;;;;0.65;80.03;97867.09;5053714;28;20048;-70
2020/12/28 09:58:18;;;;;;;10.30;5.80;;;;;;;0.61;80.96;97869.28;5036747;28;20041;-71
2020/12/28 10:00:43;;;;;;;11.30;5.83;;;;;;;0.46;81.50;97870.94;5054198;28;20052;-71
2020/12/28 10:03:09;;;;;;;11.37;6.50;;;;;;;0.38;82.46;97864.72;5054111;28;20068;-71
2020/12/28 10:05:35;;;;;;;12.50;6.03;;;;;;;0.33;83.37;97869.66;5054009;28;20025;-71
2020/12/28 10:08:00;;;;;;;;;;;;;;;0.22;84.01;97871.81;5053408;28;20040;-71
2020/12/28 10:10:25;;;;;;;10.88;5.47;;;;;;;0.20;84.25;97864.13;5053790;28;19916;-71
2020/12/28 10:12:51;;;;;;;13.33;6.27;;;;;;;0.29;84.70;97863.09;5054058;28;20076;-71
2020/12/28 10:15:16;;;;;;;11.63;6.13;;;;;;;0.30;84.49;97869.97;5053874;28;20072;-71
2020/12/28 10:18:30;;;;;;;11.07;6.33;;;;;;;0.35;84.54;97858.97;5052646;28;20043;-71
2020/12/28 10:20:56;;;;;;;14.07;5.97;;;;;;;0.36;84.64;97853.56;5051516;28;20052;-71
2020/12/28 10:23:21;;;;;;;12.50;6.73;;;;;;;0.52;84.34;97859.78;5053780;28;20374;-71
2020/12/28 10:25:46;;;;;;;13.70;6.83;;;;;;;0.53;84.65;97850.91;5053359;28;20598;-72
2020/12/28 10:28:12;;;;;;;11.03;5.97;;;;;;;0.49;84.42;97844.34;5052767;28;20037;-71
2020/12/28 10:30:37;;;;;;;14.77;6.50;;;;;;;0.59;84.33;97852.88;5052650;28;20041;-72
2020/12/28 10:33:02;;;;;;;11.73;5.70;;;;;;;0.58;84.42;97861.72;5053419;28;20115;-71
2020/12/28 10:35:28;;;;;;;12.80;6.47;;;;;;;0.73;84.17;97857.41;5052475;28;20056;-71
2020/12/28 10:37:55;;;;;;;12.53;7.00;;;;;;;0.76;84.40;97850.97;5053312;28;20032;-71
2020/12/28 10:40:20;;;;;;;16.02;7.13;;;;;;;0.73;83.86;97849.53;5053432;28;20051;-71
2020/12/28 10:42:45;;;;;;;12.93;6.07;;;;;;;0.79;84.03;97846.19;5035791;28;20727;-71
2020/12/28 10:45:10;;;;;;;15.00;6.80;;;;;;;0.78;84.08;97839.31;5052443;28;20568;-71
2020/12/28 10:47:36;;;;;;;14.93;6.77;;;;;;;0.94;84.23;97837.63;5051600;28;20449;-71
2020/12/28 10:50:01;;;;;;;15.07;5.80;;;;;;;1.03;83.74;97836.56;5053067;28;20033;-71
2020/12/28 10:52:26;;;;;;;11.00;5.90;;;;;;;0.90;83.14;97841.56;5053118;28;20462;-71
2020/12/28 10:54:52;;;;;;;19.37;7.30;;;;;;;1.00;83.32;97837.72;5052999;28;20048;-71
2020/12/28 10:57:17;;;;;;;13.63;7.00;;;;;;;0.95;82.38;97839.25;5051759;28;20049;-71
2020/12/28 10:59:42;;;;;;;12.07;5.57;;;;;;;1.05;82.79;97842.47;5053072;28;20045;-71
2020/12/28 11:02:08;;;;;;;14.70;6.90;;;;;;;1.04;82.63;97839.00;5053134;28;20052;-72
2020/12/28 11:04:33;;;;;;;12.73;6.93;;;;;;;1.21;81.91;97838.91;5052691;28;20040;-71
2020/12/28 11:06:58;;;;;;;10.13;5.83;;;;;;;1.33;81.17;97834.88;5052813;28;20060;-72
2020/12/28 11:09:24;;;;;;;12.67;5.97;;;;;;;1.11;81.53;97833.09;5052935;28;20145;-72
2020/12/28 11:11:52;;;;;;;12.75;6.35;;;;;;;1.10;80.98;97836.69;5052851;28;20423;-71
2020/12/28 11:14:18;;;;;;;11.07;6.00;;;;;;;1.21;81.87;97837.09;5052798;28;20064;-72
2020/12/28 11:16:43;;;;;;;11.23;5.63;;;;;;;1.08;81.06;97834.25;5052447;28;20439;-71
2020/12/28 11:19:09;;;;;;;11.00;5.28;;;;;;;1.17;80.87;97838.47;5052493;28;20098;-72
2020/12/28 11:21:34;;;;;;;13.73;7.57;;;;;;;1.27;81.03;97848.75;5052717;28;20056;-72
2020/12/28 11:24:03;;;;;;;11.00;5.50;;;;;;;1.22;80.29;97859.78;5051646;28;20053;-72
2020/12/28 11:26:33;;;;;;;13.15;5.68;;;;;;;1.24;80.95;97849.06;5051346;28;20094;-72
2020/12/28 11:29:00;;;;;;;11.90;6.82;;;;;;;1.24;79.98;97851.69;5034774;28;20044;-71
2020/12/28 11:31:25;;;;;;;10.45;5.45;;;;;;;1.20;80.11;97851.25;5052349;28;20450;-71
2020/12/28 11:33:51;;;;;;;13.40;6.43;;;;;;;1.24;80.32;97849.91;5051532;28;20033;-72
2020/12/28 11:36:17;;;;;;;11.10;6.72;;;;;;;1.19;79.93;97841.72;5050994;28;20091;-72
2020/12/28 11:38:43;;;;;;;11.32;5.72;;;;;;;1.26;80.32;97842.69;5052334;28;20363;-71
2020/12/28 11:41:09;;;;;;;16.05;6.10;;;;;;;1.29;80.03;97840.66;5051328;28;20102;-71
2020/12/28 11:43:34;;;;;;;14.32;6.38;;;;;;;1.33;80.33;97831.44;5052320;28;20033;-71
2020/12/28 11:46:00;;;;;;;14.17;7.27;;;;;;;1.37;80.74;97835.38;5050938;28;20051;-72
2020/12/28 11:48:26;;;;;;;13.50;7.55;;;;;;;1.39;80.35;97831.56;5051193;28;20052;-72
2020/12/28 11:50:51;;;;;;;9.90;5.83;;;;;;;1.35;79.98;97826.84;5051157;28;20064;-72
2020/12/28 11:53:16;;;;;;;11.17;6.50;;;;;;;1.44;80.57;97821.34;5051305;28;20295;-72